Hauptseite
METAR-TAF:

METAR-TAF

Flughäfen :

Militärflugplatz Cameri

Novara, Italien

Breite: 45-31N, Länge: 008-40E, Höhe: 178 m

Beobachtung

Neuester Wetterbericht von vor 8 Stunden und 19 Minuten, um 17:55 UTC
Wind 3 kt aus Süd/Südwest, variierte zwischen Süd und West/Südwest
Temperatur 26°C
Luftfeuchtigkeit 51%
Luftdruck 1014 hPa
Sichtweite 10 km oder mehr
keine Wolken unter 1500 m und keine Kumulonimbus oder Gewitterwolken

METAR: LIMN 251755Z 21003KT 170V240 CAVOK 26/15 Q1014 RMK FEW FEW200 VIS MIN 9999 BLU

Zeit: 04:14 (02:14 UTC)


TAF: fehlend

Wetterbeobachtungen und Prognosen von mehr als 4000 Flughäfen (METAR und TAF Bericht).

Die verfügbaren Stationen werden durch gelbe und rote Markierungen auf der Karte dargestellt.

Führen Sie die Maus auf sie, um den Namen der Station zu sehen.

Darauf klicken, um die Beobachtung von Wetterbeobachtungen und Prognosen zu sehen.

Um die Karte zu ändern : klicken Sie auf den grünen Tasten mit einem schwarzen Kreuz Zum Vergrößern, auf den grünen Button mit einem Gedankenstrich zu verkleinern, oder auf die grünen Pfeile für benachbarte Karten.


METAR-TAF: